Penticton, British Columbia

5:32 PM PST on January 28, 2015 (GMT -0800)
Penticton | Change Station
CLOSE
Current Station
Airport
Location: Penticton,
Elevation: 1129 ft
Nearby Weather Stations

Elev 1129 ft 49.46 °N, 119.61 °W | Updated 32 minutes ago

Overcast
Overcast
36 °F
Feels Like 36 °F
N
2
Wind Variable Wind from Variable

Tomorrow is forecast to be nearly the same temperature as today.

Today
High -- | Low -- °F
--% Chance of Precip.
Yesterday
High -- | Low -- °F
Precip. -- in
7:35 AM 4:47 PM
Waxing Gibbous, 69% visible
Pressure 30.51 in
Visibility 10.0 miles
Clouds Overcast 800 ft
Dew Point 32 °F
Humidity 87%
Rainfall 0.00 in
Snow Depth Not available.
UV 0 out of 12
Pollen Not available.
Air Quality Not available.
Flu Activity Not available.
METAR CYYF 290100Z VRB02KT 10SM OVC008 02/00 A3046 RMK ST8 SLP329

More Conditions Fewer Conditions

Pressure 30.51 in
Visibility 10.0 miles
Clouds Overcast 800 ft
Dew Point 32 °F
Humidity 87%
Rainfall 0.00 in
Snow Depth Not available.
UV 0 out of 12
Pollen Not available.
Air Quality Not available.
Flu Activity Not available.
METAR CYYF 290100Z VRB02KT 10SM OVC008 02/00 A3046 RMK ST8 SLP329

More Conditions Fewer Conditions

10-Day Weather Forecast

Almanac

Astronomy

Jan. 28, 2015 Rise Set
Actual Time
Civil Twilight
Nautical Twilight
Astronomical Twilight
Moon
Length of Visible Light
Length of Day
Tomorrow will be .
, % of the Moon is Illuminated

Today's Extremes

Country Highs Country Lows

Community

WunderPhotos

Upload Photos

1,791,321 photos uploaded!

WunderBlogs® & News

Nearby

Air Quality

  Air Quality AQ Index Pollutant
Not available.

Snow Depth

Station Depth Elevation

Earthquake Activity

City Distance Mag. Time & Date
Minimum magnitude displayed is 2.5.

Coastal Water Temperatures

Place Temperature

Nearby Weather Stations